Time;durP1;ratioP1;P1;durP2;ratioP2;P2;SDS_P1;SDS_P2;PMS_P1;PMS_P2;Temp;Humidity;BMP_temperature;BMP_pressure;BME280_temperature;BME280_humidity;BME280_pressure;Samples;Min_cycle;Max_cycle;Signal;HPM_P1;HPM_P2
2023/06/06 00:00:59;;;;;;;;;3.00;2.00;;;;;;;;5077015;28;45374;-81
2023/06/06 00:03:25;;;;;;;;;3.00;1.67;;;;;;;;5076828;28;45797;-81
2023/06/06 00:05:50;;;;;;;;;2.00;2.00;;;;;;;;5076715;27;46027;-81
2023/06/06 00:08:15;;;;;;;;;2.00;1.33;;;;;;;;5077019;28;45366;-82
2023/06/06 00:10:40;;;;;;;;;7.50;2.50;;;;;;;;5077111;27;45351;-81
2023/06/06 00:13:06;;;;;;;;;3.33;3.00;;;;;;;;5074432;28;45580;-81
2023/06/06 00:15:31;;;;;;;;;2.00;1.67;;;;;;;;5074776;28;46548;-81
2023/06/06 00:17:58;;;;;;;;;4.75;3.25;;;;;;;;5076887;27;45411;-81
2023/06/06 00:20:24;;;;;;;;;5.00;3.00;;;;;;;;5076519;27;45341;-81
2023/06/06 00:22:53;;;;;;;;;1.00;1.00;;;;;;;;5076773;27;45396;-81
2023/06/06 00:25:18;;;;;;;;;7.25;2.00;;;;;;;;5076443;27;47061;-81
2023/06/06 00:27:43;;;;;;;;;3.50;1.50;;;;;;;;5076852;27;45359;-81
2023/06/06 00:30:09;;;;;;;;;1.67;1.67;;;;;;;;5076555;28;45437;-81
2023/06/06 00:32:35;;;;;;;;;2.50;2.25;;;;;;;;5076642;27;45485;-82
2023/06/06 00:35:00;;;;;;;;;3.25;2.25;;;;;;;;5076048;27;46114;-81
2023/06/06 00:37:25;;;;;;;;;4.33;3.00;;;;;;;;5076439;28;45330;-81
2023/06/06 00:39:51;;;;;;;;;1.00;0.33;;;;;;;;5076758;28;45452;-81
2023/06/06 00:42:16;;;;;;;;;5.33;2.67;;;;;;;;5076284;28;45534;-82
2023/06/06 00:44:41;;;;;;;;;4.00;2.75;;;;;;;;5076008;27;46565;-81
2023/06/06 00:47:07;;;;;;;;;5.00;3.00;;;;;;;;5076553;28;45288;-81
2023/06/06 00:49:33;;;;;;;;;2.25;2.00;;;;;;;;5076342;27;45308;-81
2023/06/06 00:51:59;;;;;;;;;1.50;1.50;;;;;;;;5076462;27;45288;-81
2023/06/06 00:54:25;;;;;;;;;3.00;3.00;;;;;;;;5076335;27;46378;-80
2023/06/06 00:56:51;;;;;;;;;4.00;2.00;;;;;;;;5076208;28;45363;-80
2023/06/06 00:59:17;;;;;;;;;4.50;3.00;;;;;;;;5076335;27;45344;-81
2023/06/06 01:01:42;;;;;;;;;2.50;2.25;;;;;;;;5076332;27;45386;-81
2023/06/06 01:04:08;;;;;;;;;2.25;2.25;;;;;;;;5075233;27;47230;-81
2023/06/06 01:06:35;;;;;;;;;3.75;1.25;;;;;;;;5076172;27;45446;-81
2023/06/06 01:09:04;;;;;;;;;1.75;1.50;;;;;;;;5076348;27;45350;-81
2023/06/06 01:11:34;;;;;;;;;4.00;2.00;;;;;;;;5075735;27;45359;-81
2023/06/06 01:14:21;;;;;;;;;2.50;2.00;;;;;;;;5075441;27;46714;-82
2023/06/06 01:16:49;;;;;;;;;4.50;2.75;;;;;;;;5076013;27;45293;-81
2023/06/06 01:19:19;;;;;;;;;2.75;2.50;;;;;;;;5075867;27;45402;-81
2023/06/06 01:21:44;;;;;;;;;5.00;2.00;;;;;;;;5075875;27;45511;-81
2023/06/06 01:24:10;;;;;;;;;3.50;2.00;;;;;;;;5075440;27;46070;-81
2023/06/06 01:26:35;;;;;;;;;3.67;3.00;;;;;;;;5075701;27;45333;-81
2023/06/06 01:29:01;;;;;;;;;3.25;1.00;;;;;;;;5075987;27;45424;-81
2023/06/06 01:31:31;;;;;;;;;6.00;2.25;;;;;;;;5075931;27;45332;-81
2023/06/06 01:34:01;;;;;;;;;3.75;2.75;;;;;;;;5075104;27;46161;-82
2023/06/06 01:36:33;;;;;;;;;4.00;3.00;;;;;;;;5075708;27;45363;-82
2023/06/06 01:39:06;;;;;;;;;4.25;1.00;;;;;;;;5074490;28;45423;-82
2023/06/06 01:41:33;;;;;;;;;4.75;2.75;;;;;;;;5075811;27;45379;-83
2023/06/06 01:44:00;;;;;;;;;4.00;3.00;;;;;;;;5073921;28;47535;-81
2023/06/06 01:46:26;;;;;;;;;3.50;3.00;;;;;;;;5075471;27;45728;-82
2023/06/06 01:48:52;;;;;;;;;5.50;3.75;;;;;;;;5075271;27;45350;-82
2023/06/06 01:51:17;;;;;;;;;5.00;3.00;;;;;;;;5075500;27;45344;-82
2023/06/06 01:53:42;;;;;;;;;4.67;2.00;;;;;;;;5075473;28;45523;-82
2023/06/06 01:56:12;;;;;;;;;3.67;2.00;;;;;;;;5075565;28;45336;-82
2023/06/06 01:58:37;;;;;;;;;6.50;2.50;;;;;;;;5075446;27;45414;-82
2023/06/06 02:01:03;;;;;;;;;8.25;3.50;;;;;;;;5075404;27;45445;-82
2023/06/06 02:03:28;;;;;;;;;5.25;3.25;;;;;;;;5074553;27;47009;-82
2023/06/06 02:05:54;;;;;;;;;6.00;2.00;;;;;;;;5074012;28;45446;-82
2023/06/06 02:08:20;;;;;;;;;4.67;3.00;;;;;;;;5075599;28;45441;-82
2023/06/06 02:10:45;;;;;;;;;4.00;2.25;;;;;;;;5075207;27;45556;-82
2023/06/06 02:13:11;;;;;;;;;2.00;2.00;;;;;;;;5074943;28;45265;-81
2023/06/06 02:15:36;;;;;;;;;5.00;3.00;;;;;;;;5075058;28;45721;-81
2023/06/06 02:18:01;;;;;;;;;5.67;4.00;;;;;;;;5075005;28;45413;-81
2023/06/06 02:20:26;;;;;;;;;3.67;2.00;;;;;;;;5075275;28;45343;-81
2023/06/06 02:22:51;;;;;;;;;4.00;2.00;;;;;;;;5075028;28;45423;-81
2023/06/06 02:25:17;;;;;;;;;3.00;3.00;;;;;;;;5074962;28;45470;-80
2023/06/06 02:27:48;;;;;;;;;5.75;3.75;;;;;;;;5075083;27;45276;-81
2023/06/06 02:30:13;;;;;;;;;4.00;4.00;;;;;;;;5075128;27;45350;-82
2023/06/06 02:32:39;;;;;;;;;4.75;4.00;;;;;;;;5072857;28;47309;-81
2023/06/06 02:35:04;;;;;;;;;3.25;2.00;;;;;;;;5074703;27;45417;-82
2023/06/06 02:37:30;;;;;;;;;4.50;2.75;;;;;;;;5077638;28;45368;-81
2023/06/06 02:39:55;;;;;;;;;4.75;3.00;;;;;;;;5078377;27;45367;-81
2023/06/06 02:42:20;;;;;;;;;7.50;3.00;;;;;;;;5078264;27;46100;-81
2023/06/06 02:44:46;;;;;;;;;7.67;4.00;;;;;;;;5078167;28;45348;-81
2023/06/06 02:47:11;;;;;;;;;4.00;3.00;;;;;;;;5077803;27;45371;-84
2023/06/06 02:49:36;;;;;;;;;3.75;3.75;;;;;;;;5078476;28;45465;-81
2023/06/06 02:52:02;;;;;;;;;2.00;2.00;;;;;;;;5078035;28;47351;-81
2023/06/06 02:54:27;;;;;;;;;5.00;2.00;;;;;;;;5077992;27;45739;-81
2023/06/06 02:56:52;;;;;;;;;6.33;3.67;;;;;;;;5078552;28;45320;-81
2023/06/06 02:59:17;;;;;;;;;5.00;4.00;;;;;;;;5078025;28;45558;-81
2023/06/06 03:01:44;;;;;;;;;5.00;5.00;;;;;;;;5077669;28;46091;-81
2023/06/06 03:04:12;;;;;;;;;6.50;3.00;;;;;;;;5077633;27;45754;-80
2023/06/06 03:06:40;;;;;;;;;8.50;5.75;;;;;;;;5078070;27;45334;-80
2023/06/06 03:09:06;;;;;;;;;5.25;2.25;;;;;;;;5078164;27;45374;-81
2023/06/06 03:11:31;;;;;;;;;6.50;2.50;;;;;;;;5077899;27;45407;-81
2023/06/06 03:13:57;;;;;;;;;6.25;3.25;;;;;;;;5077105;27;45449;-81
2023/06/06 03:16:26;;;;;;;;;7.75;3.75;;;;;;;;5077964;27;45481;-81
2023/06/06 03:18:52;;;;;;;;;3.00;3.00;;;;;;;;5077765;27;45414;-81
2023/06/06 03:21:18;;;;;;;;;7.50;3.25;;;;;;;;5077573;27;46240;-82
2023/06/06 03:23:43;;;;;;;;;7.50;4.75;;;;;;;;5077437;27;45415;-82
2023/06/06 03:26:08;;;;;;;;;6.00;4.00;;;;;;;;5077778;28;45337;-81
2023/06/06 03:28:34;;;;;;;;;7.00;4.00;;;;;;;;5077343;28;45524;-81
2023/06/06 03:30:59;;;;;;;;;6.75;4.00;;;;;;;;5077495;27;47300;-81
2023/06/06 03:33:24;;;;;;;;;5.00;4.00;;;;;;;;5077234;28;45435;-81
2023/06/06 03:35:50;;;;;;;;;6.67;3.00;;;;;;;;5077759;28;45307;-81
2023/06/06 03:38:15;;;;;;;;;4.50;3.75;;;;;;;;5077626;27;45483;-80
2023/06/06 03:40:40;;;;;;;;;5.00;5.00;;;;;;;;5077075;28;46668;-81
2023/06/06 03:43:05;;;;;;;;;6.33;5.00;;;;;;;;5076775;28;45489;-81
2023/06/06 03:45:31;;;;;;;;;4.00;4.00;;;;;;;;5077411;27;45799;-81
2023/06/06 03:47:56;;;;;;;;;5.67;4.00;;;;;;;;5076373;28;45282;-82
2023/06/06 03:50:21;;;;;;;;;8.00;5.00;;;;;;;;5077062;28;46287;-84
2023/06/06 03:52:46;;;;;;;;;9.50;4.75;;;;;;;;5077104;27;45311;-85
2023/06/06 03:55:12;;;;;;;;;6.67;6.67;;;;;;;;5077409;28;45418;-84
2023/06/06 03:57:37;;;;;;;;;11.00;6.00;;;;;;;;5076870;28;45565;-84
2023/06/06 04:00:07;;;;;;;;;4.25;3.00;;;;;;;;5076830;27;46412;-85
2023/06/06 04:02:33;;;;;;;;;6.25;5.00;;;;;;;;5076988;27;45802;-85
2023/06/06 04:05:01;;;;;;;;;8.50;4.00;;;;;;;;5077077;27;45323;-81
2023/06/06 04:07:28;;;;;;;;;3.50;2.00;;;;;;;;5076926;27;45565;-85
2023/06/06 04:09:53;;;;;;;;;5.00;3.75;;;;;;;;5076933;27;47082;-86
2023/06/06 04:12:18;;;;;;;;;5.00;5.00;;;;;;;;5076836;28;45438;-83
2023/06/06 04:14:43;;;;;;;;;11.00;5.00;;;;;;;;5076707;28;45461;-84
2023/06/06 04:17:09;;;;;;;;;6.33;5.00;;;;;;;;5076888;28;45422;-83
2023/06/06 04:19:34;;;;;;;;;8.00;5.25;;;;;;;;5076892;27;47489;-82
2023/06/06 04:22:00;;;;;;;;;8.25;5.75;;;;;;;;5076619;27;45416;-81
2023/06/06 04:24:25;;;;;;;;;13.00;6.25;;;;;;;;5076391;27;45316;-81
2023/06/06 04:26:50;;;;;;;;;4.00;4.00;;;;;;;;5076317;28;45356;-81
2023/06/06 04:29:15;;;;;;;;;6.00;5.00;;;;;;;;5065999;27;46477;-80
2023/06/06 04:31:41;;;;;;;;;10.00;5.33;;;;;;;;5081394;27;45485;-81
2023/06/06 04:34:06;;;;;;;;;9.67;5.67;;;;;;;;5059426;28;45479;-81
2023/06/06 04:36:33;;;;;;;;;11.00;6.00;;;;;;;;5056260;28;45535;-81
2023/06/06 04:39:00;;;;;;;;;12.75;6.25;;;;;;;;5067602;28;47030;-81
2023/06/06 04:41:30;;;;;;;;;6.50;6.00;;;;;;;;5095890;27;45315;-81
2023/06/06 04:43:56;;;;;;;;;10.00;5.00;;;;;;;;5087112;27;45490;-82
2023/06/06 04:46:22;;;;;;;;;11.75;9.25;;;;;;;;5096855;27;45360;-82
2023/06/06 04:48:54;;;;;;;;;9.00;6.33;;;;;;;;5096883;27;46399;-82
2023/06/06 04:51:29;;;;;;;;;10.00;6.00;;;;;;;;5086117;27;45343;-82
2023/06/06 04:53:57;;;;;;;;;12.00;5.75;;;;;;;;5076438;27;45297;-82
2023/06/06 04:56:23;;;;;;;;;11.00;6.50;;;;;;;;5085115;27;45354;-83
2023/06/06 04:58:48;;;;;;;;;7.00;7.00;;;;;;;;5092242;27;45460;-81
2023/06/06 05:01:15;;;;;;;;;10.67;9.67;;;;;;;;5076135;28;45373;-82
2023/06/06 05:03:41;;;;;;;;;8.25;7.50;;;;;;;;5076071;27;45319;-81
2023/06/06 05:06:06;;;;;;;;;11.33;5.00;;;;;;;;5076251;28;45551;-81
2023/06/06 05:08:32;;;;;;;;;8.75;6.75;;;;;;;;5076091;27;46989;-82
2023/06/06 05:10:58;;;;;;;;;11.00;6.75;;;;;;;;5067234;27;45447;-81
2023/06/06 05:13:23;;;;;;;;;9.50;6.25;;;;;;;;5064390;28;45999;-83
2023/06/06 05:15:48;;;;;;;;;15.50;10.00;;;;;;;;5075941;28;45502;-82
2023/06/06 05:18:14;;;;;;;;;11.67;9.33;;;;;;;;5064424;28;46162;-82
2023/06/06 05:20:39;;;;;;;;;11.67;6.00;;;;;;;;5070666;28;45387;-80
2023/06/06 05:23:06;;;;;;;;;11.33;8.33;;;;;;;;5075684;27;45268;-80
2023/06/06 05:25:31;;;;;;;;;10.00;7.25;;;;;;;;5075127;27;45521;-79
2023/06/06 05:27:56;;;;;;;;;9.33;7.00;;;;;;;;5075322;27;46241;-82
2023/06/06 05:30:21;;;;;;;;;11.33;9.00;;;;;;;;5075363;27;45447;-82
2023/06/06 05:32:46;;;;;;;;;9.00;7.67;;;;;;;;5073909;27;45492;-81
2023/06/06 05:35:11;;;;;;;;;15.00;9.67;;;;;;;;5075496;27;45362;-81
2023/06/06 05:37:37;;;;;;;;;15.00;11.00;;;;;;;;5075267;28;46024;-81
2023/06/06 05:40:03;;;;;;;;;13.00;7.00;;;;;;;;5074582;27;45410;-82
2023/06/06 05:42:28;;;;;;;;;12.50;7.75;;;;;;;;5064766;27;45381;-82
2023/06/06 05:44:53;;;;;;;;;10.67;10.00;;;;;;;;5060749;28;45467;-83
2023/06/06 05:47:18;;;;;;;;;11.33;11.00;;;;;;;;5074979;27;45401;-85
2023/06/06 05:49:43;;;;;;;;;15.00;10.33;;;;;;;;5075688;27;45544;-82
2023/06/06 05:52:08;;;;;;;;;11.67;8.67;;;;;;;;5075257;27;45343;-81
2023/06/06 05:54:37;;;;;;;;;11.00;7.00;;;;;;;;5075170;27;45336;-82
2023/06/06 05:57:03;;;;;;;;;16.25;10.25;;;;;;;;5075051;27;47343;-82
2023/06/06 05:59:28;;;;;;;;;13.50;11.00;;;;;;;;5075328;27;45795;-82
2023/06/06 06:01:54;;;;;;;;;13.00;8.00;;;;;;;;5075193;27;45265;-81
2023/06/06 06:04:19;;;;;;;;;12.67;8.33;;;;;;;;5073645;28;45282;-81
2023/06/06 06:06:48;;;;;;;;;15.67;8.33;;;;;;;;5061224;27;45344;-80
2023/06/06 06:09:14;;;;;;;;;9.00;5.00;;;;;;;;5074668;28;45911;-80
2023/06/06 06:11:40;;;;;;;;;12.25;7.75;;;;;;;;5076017;27;45415;-80
2023/06/06 06:14:05;;;;;;;;;14.00;8.00;;;;;;;;5078105;27;45406;-80
2023/06/06 06:16:30;;;;;;;;;13.75;8.75;;;;;;;;5078542;27;46319;-81
2023/06/06 06:18:56;;;;;;;;;10.67;8.00;;;;;;;;5078572;27;45321;-81
2023/06/06 06:21:21;;;;;;;;;14.00;9.33;;;;;;;;5078196;27;45546;-79
2023/06/06 06:23:47;;;;;;;;;14.25;10.50;;;;;;;;5074277;27;45441;-82
2023/06/06 06:26:12;;;;;;;;;11.75;10.25;;;;;;;;5078383;27;45514;-78
2023/06/06 06:28:37;;;;;;;;;13.67;8.67;;;;;;;;5077268;27;45307;-80
2023/06/06 06:31:02;;;;;;;;;12.67;9.67;;;;;;;;5095418;27;45503;-80
2023/06/06 06:33:29;;;;;;;;;16.00;10.00;;;;;;;;5098814;27;45269;-80
2023/06/06 06:35:54;;;;;;;;;14.00;9.00;;;;;;;;5098843;27;47171;-79
2023/06/06 06:38:20;;;;;;;;;13.67;8.67;;;;;;;;5098621;27;45347;-80
2023/06/06 06:40:45;;;;;;;;;12.50;8.75;;;;;;;;5093163;27;45462;-80
2023/06/06 06:43:11;;;;;;;;;12.00;7.00;;;;;;;;5078405;28;45376;-81
2023/06/06 06:45:36;;;;;;;;;12.00;10.67;;;;;;;;5078155;27;46598;-80
2023/06/06 06:48:02;;;;;;;;;11.67;7.00;;;;;;;;5078284;27;45370;-81
2023/06/06 06:50:27;;;;;;;;;13.50;10.50;;;;;;;;5078457;27;45374;-82
2023/06/06 06:52:53;;;;;;;;;12.75;8.50;;;;;;;;5077917;27;45395;-81
2023/06/06 06:55:19;;;;;;;;;14.00;11.75;;;;;;;;5077998;27;46969;-80
2023/06/06 06:57:44;;;;;;;;;16.00;9.00;;;;;;;;5078525;27;45292;-80
2023/06/06 07:00:14;;;;;;;;;13.75;10.25;;;;;;;;5078347;27;45383;-80
2023/06/06 07:02:39;;;;;;;;;14.00;9.25;;;;;;;;5078102;27;45500;-80
2023/06/06 07:05:05;;;;;;;;;19.33;13.33;;;;;;;;5077044;27;46191;-80
2023/06/06 07:07:31;;;;;;;;;17.00;10.75;;;;;;;;5076648;27;45891;-81
2023/06/06 07:09:56;;;;;;;;;13.33;6.67;;;;;;;;5078139;27;45472;-81
2023/06/06 07:12:21;;;;;;;;;12.67;9.33;;;;;;;;5065648;27;45299;-81
2023/06/06 07:14:46;;;;;;;;;13.67;7.67;;;;;;;;5077737;28;46877;-80
2023/06/06 07:17:11;;;;;;;;;13.75;10.00;;;;;;;;5073965;27;45535;-82
2023/06/06 07:19:37;;;;;;;;;15.67;9.33;;;;;;;;5077700;28;45358;-77
2023/06/06 07:22:03;;;;;;;;;20.75;14.25;;;;;;;;5076687;27;45385;-79
2023/06/06 07:24:28;;;;;;;;;14.00;8.25;;;;;;;;5077015;27;45553;-80
2023/06/06 07:26:54;;;;;;;;;11.00;8.50;;;;;;;;5077471;27;45337;-79
2023/06/06 07:29:21;;;;;;;;;19.67;12.67;;;;;;;;5073989;28;45425;-80
2023/06/06 07:31:46;;;;;;;;;16.25;9.25;;;;;;;;5058384;28;45448;-80
2023/06/06 07:34:11;;;;;;;;;20.00;10.67;;;;;;;;5055528;28;46740;-80
2023/06/06 07:36:36;;;;;;;;;12.33;10.00;;;;;;;;5056636;28;45371;-81
2023/06/06 07:39:02;;;;;;;;;16.67;11.33;;;;;;;;5057099;28;45321;-80
2023/06/06 07:41:29;;;;;;;;;13.50;9.00;;;;;;;;5066488;28;45489;-80
2023/06/06 07:43:55;;;;;;;;;18.50;12.50;;;;;;;;5064066;27;45668;-80
2023/06/06 07:46:21;;;;;;;;;19.00;12.25;;;;;;;;5068217;27;45476;-81
2023/06/06 07:48:46;;;;;;;;;15.00;11.00;;;;;;;;5068866;27;45517;-79
2023/06/06 07:51:11;;;;;;;;;18.67;11.00;;;;;;;;5074802;27;45532;-80
2023/06/06 07:53:36;;;;;;;;;17.33;12.33;;;;;;;;5073584;27;47083;-81
2023/06/06 07:56:03;;;;;;;;;11.33;9.67;;;;;;;;5073934;27;45521;-80
2023/06/06 07:58:40;;;;;;;;;17.00;10.75;;;;;;;;5076314;27;45674;-81
2023/06/06 08:01:07;;;;;;;;;10.75;7.25;;;;;;;;5075455;28;45399;-80
2023/06/06 08:03:32;;;;;;;;;18.00;10.50;;;;;;;;5075274;27;47129;-80
2023/06/06 08:05:57;;;;;;;;;17.75;12.00;;;;;;;;5075145;28;45348;-80
2023/06/06 08:08:22;;;;;;;;;13.00;8.67;;;;;;;;5075458;27;45323;-79
2023/06/06 08:10:47;;;;;;;;;12.67;9.33;;;;;;;;5075615;27;45393;-81
2023/06/06 08:13:14;;;;;;;;;19.00;12.67;;;;;;;;5075673;27;45494;-80
2023/06/06 08:15:39;;;;;;;;;13.00;11.00;;;;;;;;5071975;27;45717;-79
2023/06/06 08:18:04;;;;;;;;;14.00;10.00;;;;;;;;5071336;27;45386;-80
2023/06/06 08:20:29;;;;;;;;;21.33;11.67;;;;;;;;5069725;27;45489;-80
2023/06/06 08:22:55;;;;;;;;;18.67;14.00;;;;;;;;5062184;27;47124;-81
2023/06/06 08:25:20;;;;;;;;;15.67;11.00;;;;;;;;5073794;27;45444;-81
2023/06/06 08:27:45;;;;;;;;;15.33;11.00;;;;;;;;5070520;27;45547;-82
2023/06/06 08:30:11;;;;;;;;;11.67;11.00;;;;;;;;5075997;27;45562;-81
2023/06/06 08:32:37;;;;;;;;;18.75;9.00;;;;;;;;5073427;27;47197;-80
2023/06/06 08:35:03;;;;;;;;;14.50;11.75;;;;;;;;5073334;27;45350;-79
2023/06/06 08:37:28;;;;;;;;;14.25;11.00;;;;;;;;5076074;27;45376;-80
2023/06/06 08:39:53;;;;;;;;;15.67;11.67;;;;;;;;5068644;27;45571;-80
2023/06/06 08:42:21;;;;;;;;;18.00;10.00;;;;;;;;5073764;27;46241;-80
2023/06/06 08:44:47;;;;;;;;;10.75;10.00;;;;;;;;5074850;27;45415;-79
2023/06/06 08:47:12;;;;;;;;;11.75;9.75;;;;;;;;5075672;27;45277;-81
2023/06/06 08:49:38;;;;;;;;;17.50;12.50;;;;;;;;5074981;27;45473;-80
2023/06/06 08:52:05;;;;;;;;;18.00;10.25;;;;;;;;5074233;27;45506;-80
2023/06/06 08:54:31;;;;;;;;;13.50;9.25;;;;;;;;5075312;27;45614;-81
2023/06/06 08:56:56;;;;;;;;;13.00;9.00;;;;;;;;5075634;27;45483;-80
2023/06/06 08:59:22;;;;;;;;;13.67;11.00;;;;;;;;5074242;27;45544;-81
2023/06/06 09:01:49;;;;;;;;;13.75;9.50;;;;;;;;5073494;27;46181;-81
2023/06/06 09:04:15;;;;;;;;;14.00;12.00;;;;;;;;5070004;27;45513;-79
2023/06/06 09:06:44;;;;;;;;;18.75;11.25;;;;;;;;5072027;27;46302;-81
2023/06/06 09:09:09;;;;;;;;;13.50;10.00;;;;;;;;5073180;27;45382;-81
2023/06/06 09:11:35;;;;;;;;;14.75;11.25;;;;;;;;5075144;27;47322;-80
2023/06/06 09:14:00;;;;;;;;;12.50;8.00;;;;;;;;5073644;27;45714;-81
2023/06/06 09:16:26;;;;;;;;;14.00;10.00;;;;;;;;5065488;27;45556;-79
2023/06/06 09:18:51;;;;;;;;;10.00;8.00;;;;;;;;5088612;27;45552;-81
2023/06/06 09:21:17;;;;;;;;;15.25;10.75;;;;;;;;5079502;27;45639;-80
2023/06/06 09:23:42;;;;;;;;;15.00;10.50;;;;;;;;5075111;27;45385;-81
2023/06/06 09:26:19;;;;;;;;;10.00;9.50;;;;;;;;5074803;27;45482;-81
2023/06/06 09:28:44;;;;;;;;;19.00;13.00;;;;;;;;5072731;27;45407;-80
2023/06/06 09:31:25;;;;;;;;;12.25;8.75;;;;;;;;5073741;27;45850;-81
2023/06/06 09:33:51;;;;;;;;;17.00;9.25;;;;;;;;5072994;28;45578;-79
2023/06/06 09:36:19;;;;;;;;;11.50;10.00;;;;;;;;5074987;27;45315;-80
2023/06/06 09:38:44;;;;;;;;;15.50;10.25;;;;;;;;5071749;27;45649;-80
2023/06/06 09:41:09;;;;;;;;;12.00;10.00;;;;;;;;5072433;28;46184;-82
2023/06/06 09:43:37;;;;;;;;;16.33;10.00;;;;;;;;5074359;27;45967;-81
2023/06/06 09:46:05;;;;;;;;;15.75;9.00;;;;;;;;5074804;27;45620;-81
2023/06/06 09:48:30;;;;;;;;;12.00;8.00;;;;;;;;5078334;27;45482;-81
2023/06/06 09:50:56;;;;;;;;;13.00;7.67;;;;;;;;5077511;27;46311;-80
2023/06/06 09:53:25;;;;;;;;;15.00;10.00;;;;;;;;5078136;27;45471;-82
2023/06/06 09:55:50;;;;;;;;;15.50;9.50;;;;;;;;5078450;27;45416;-82
2023/06/06 09:58:16;;;;;;;;;19.75;10.25;;;;;;;;5076962;27;45359;-81
2023/06/06 10:00:45;;;;;;;;;11.75;11.00;;;;;;;;5076563;27;46061;-83
2023/06/06 10:03:16;;;;;;;;;14.50;10.25;;;;;;;;5077615;27;45473;-77
2023/06/06 10:05:41;;;;;;;;;15.50;10.00;;;;;;;;5072869;27;45478;-79
2023/06/06 10:08:09;;;;;;;;;10.50;9.50;;;;;;;;5077773;27;45473;-79
2023/06/06 10:10:35;;;;;;;;;15.25;10.75;;;;;;;;5077902;27;46360;-80
2023/06/06 10:13:01;;;;;;;;;7.75;7.50;;;;;;;;5078004;27;46051;-82
2023/06/06 10:15:27;;;;;;;;;11.25;8.75;;;;;;;;5068890;27;45384;-81
2023/06/06 10:17:52;;;;;;;;;11.00;9.75;;;;;;;;5078067;27;45326;-78
2023/06/06 10:20:17;;;;;;;;;9.67;8.00;;;;;;;;5077874;27;46309;-80
2023/06/06 10:22:43;;;;;;;;;15.67;11.67;;;;;;;;5076401;27;45808;-80
2023/06/06 10:25:11;;;;;;;;;11.67;9.00;;;;;;;;5077771;27;45399;-79
2023/06/06 10:27:41;;;;;;;;;9.50;7.75;;;;;;;;5077199;27;45551;-81
2023/06/06 10:30:13;;;;;;;;;10.75;8.00;;;;;;;;5077651;27;46515;-79
2023/06/06 10:32:47;;;;;;;;;10.25;10.00;;;;;;;;5077219;27;45689;-81
2023/06/06 10:35:14;;;;;;;;;13.50;11.50;;;;;;;;5075922;27;45568;-83
2023/06/06 10:37:41;;;;;;;;;10.00;9.50;;;;;;;;5076708;27;45492;-79
2023/06/06 10:40:09;;;;;;;;;11.75;8.50;;;;;;;;5076236;27;46358;-81
2023/06/06 10:42:38;;;;;;;;;13.25;9.50;;;;;;;;5076529;27;45732;-82
2023/06/06 10:45:04;;;;;;;;;8.50;7.25;;;;;;;;5076894;27;46794;-80
2023/06/06 10:47:30;;;;;;;;;14.50;8.75;;;;;;;;5077052;27;45442;-80
2023/06/06 10:50:08;;;;;;;;;10.75;8.75;;;;;;;;5077521;27;46481;-80
2023/06/06 10:52:42;;;;;;;;;13.50;8.00;;;;;;;;5077278;27;45316;-83
2023/06/06 10:55:14;;;;;;;;;11.25;7.50;;;;;;;;5077358;27;45839;-84
2023/06/06 10:57:47;;;;;;;;;10.25;9.50;;;;;;;;5076936;27;45437;-84
2023/06/06 11:00:15;;;;;;;;;10.00;8.50;;;;;;;;5073723;28;48192;-82
2023/06/06 11:02:40;;;;;;;;;9.00;8.75;;;;;;;;5076063;27;45479;-82
2023/06/06 11:05:05;;;;;;;;;11.00;6.25;;;;;;;;5077089;27;45303;-85
2023/06/06 11:07:31;;;;;;;;;15.25;10.00;;;;;;;;5075862;27;45471;-85
2023/06/06 11:09:56;;;;;;;;;15.75;8.50;;;;;;;;5076636;28;46081;-82
2023/06/06 11:12:23;;;;;;;;;11.00;9.00;;;;;;;;5076884;27;45427;-84
2023/06/06 11:15:04;;;;;;;;;11.50;6.75;;;;;;;;5070796;27;45593;-83
2023/06/06 11:17:45;;;;;;;;;10.00;7.00;;;;;;;;5063555;27;45548;-83
2023/06/06 11:20:17;;;;;;;;;11.50;8.25;;;;;;;;5076983;27;46695;-83
2023/06/06 11:22:48;;;;;;;;;9.75;6.50;;;;;;;;5076354;27;45928;-83
2023/06/06 11:25:14;;;;;;;;;11.75;6.25;;;;;;;;5076633;27;45323;-84
2023/06/06 11:27:41;;;;;;;;;8.25;7.00;;;;;;;;5075601;27;45571;-85
2023/06/06 11:30:08;;;;;;;;;11.00;7.25;;;;;;;;5076442;27;45548;-84
2023/06/06 11:32:33;;;;;;;;;13.25;8.50;;;;;;;;5075635;27;45485;-84
2023/06/06 11:35:03;;;;;;;;;6.00;6.00;;;;;;;;5076429;27;45373;-84
2023/06/06 11:37:29;;;;;;;;;9.75;6.25;;;;;;;;5076323;27;45279;-82
2023/06/06 11:39:55;;;;;;;;;7.75;6.00;;;;;;;;5076664;27;46931;-83
2023/06/06 11:42:20;;;;;;;;;11.50;7.25;;;;;;;;5076193;28;46045;-83
2023/06/06 11:44:45;;;;;;;;;7.67;6.00;;;;;;;;5076540;27;45340;-82
2023/06/06 11:47:11;;;;;;;;;13.50;7.00;;;;;;;;5076432;27;45491;-83
2023/06/06 11:49:43;;;;;;;;;7.67;6.33;;;;;;;;5075687;27;45765;-83
2023/06/06 11:52:09;;;;;;;;;6.50;6.50;;;;;;;;5076137;27;45323;-83
2023/06/06 11:54:35;;;;;;;;;7.50;6.25;;;;;;;;5076336;27;45220;-86
2023/06/06 11:57:05;;;;;;;;;6.75;6.00;;;;;;;;5076235;27;45422;-84
2023/06/06 11:59:32;;;;;;;;;6.75;5.50;;;;;;;;5069338;27;46267;-85
2023/06/06 12:01:58;;;;;;;;;5.75;5.25;;;;;;;;5071663;28;45420;-83
2023/06/06 12:04:24;;;;;;;;;6.00;4.25;;;;;;;;5074565;27;45379;-84
2023/06/06 12:07:05;;;;;;;;;7.50;7.00;;;;;;;;5069865;28;45525;-82
2023/06/06 12:09:32;;;;;;;;;11.25;6.50;;;;;;;;5073061;27;45349;-84
2023/06/06 12:12:01;;;;;;;;;8.00;6.00;;;;;;;;5073511;27;45366;-83
2023/06/06 12:14:27;;;;;;;;;9.75;5.25;;;;;;;;5072972;27;45825;-83
2023/06/06 12:17:00;;;;;;;;;8.75;5.25;;;;;;;;5071075;27;45312;-83
2023/06/06 12:19:26;;;;;;;;;9.25;6.50;;;;;;;;5074752;27;46825;-83
2023/06/06 12:21:51;;;;;;;;;10.00;6.00;;;;;;;;5075950;27;45465;-85
2023/06/06 12:24:17;;;;;;;;;5.25;2.00;;;;;;;;5076157;27;45370;-87
2023/06/06 12:26:45;;;;;;;;;5.50;5.00;;;;;;;;5072838;27;45497;-84
2023/06/06 12:29:11;;;;;;;;;6.00;5.00;;;;;;;;5072863;27;46481;-84
2023/06/06 12:31:40;;;;;;;;;5.25;3.25;;;;;;;;5074197;27;45608;-87
2023/06/06 12:34:06;;;;;;;;;5.75;5.00;;;;;;;;5080752;27;45389;-84
2023/06/06 12:36:31;;;;;;;;;;;;;;;;;;5072173;27;45556;-85
2023/06/06 12:38:56;;;;;;;;;6.00;5.00;;;;;;;;5074329;27;46498;-82
2023/06/06 12:41:21;;;;;;;;;9.00;6.00;;;;;;;;5075549;27;45497;-83
2023/06/06 12:43:46;;;;;;;;;10.67;5.67;;;;;;;;5087444;27;45512;-83
2023/06/06 12:46:12;;;;;;;;;8.67;6.67;;;;;;;;5077216;27;45566;-84
2023/06/06 12:48:37;;;;;;;;;10.33;7.00;;;;;;;;5074584;27;46346;-83
2023/06/06 12:51:02;;;;;;;;;7.67;5.00;;;;;;;;5074397;27;45334;-85
2023/06/06 12:53:28;;;;;;;;;4.75;2.75;;;;;;;;5062698;27;45960;-85
2023/06/06 12:55:53;;;;;;;;;9.25;5.75;;;;;;;;5062557;27;45578;-82
2023/06/06 12:58:19;;;;;;;;;5.67;4.33;;;;;;;;5074031;27;46223;-82
2023/06/06 13:00:44;;;;;;;;;7.75;5.00;;;;;;;;5073991;27;45450;-85
2023/06/06 13:03:10;;;;;;;;;7.67;6.00;;;;;;;;5073849;27;45435;-85
2023/06/06 13:05:35;;;;;;;;;4.00;3.50;;;;;;;;5075310;27;45344;-84
2023/06/06 13:08:01;;;;;;;;;8.00;5.33;;;;;;;;5074669;27;46302;-83
2023/06/06 13:10:26;;;;;;;;;5.33;4.67;;;;;;;;5074551;27;45423;-84
2023/06/06 13:12:51;;;;;;;;;5.67;4.67;;;;;;;;5073982;27;45415;-83
2023/06/06 13:15:16;;;;;;;;;5.33;4.33;;;;;;;;5069831;27;45522;-85
2023/06/06 13:17:41;;;;;;;;;6.33;4.00;;;;;;;;5074138;27;46133;-85
2023/06/06 13:20:08;;;;;;;;;6.67;5.00;;;;;;;;5073631;27;45462;-83
2023/06/06 13:22:33;;;;;;;;;8.50;4.00;;;;;;;;5074189;27;45425;-83
2023/06/06 13:24:59;;;;;;;;;3.00;3.00;;;;;;;;5073927;27;45354;-82
2023/06/06 13:27:24;;;;;;;;;3.75;3.00;;;;;;;;5074411;27;46906;-83
2023/06/06 13:29:49;;;;;;;;;3.75;2.25;;;;;;;;5075066;27;45351;-86
2023/06/06 13:32:14;;;;;;;;;4.33;2.33;;;;;;;;5074174;27;45518;-85
2023/06/06 13:34:40;;;;;;;;;7.33;2.67;;;;;;;;5073142;28;45344;-83
2023/06/06 13:37:05;;;;;;;;;2.50;2.50;;;;;;;;5073012;27;45375;-85
2023/06/06 13:39:30;;;;;;;;;4.50;3.50;;;;;;;;5071434;27;45279;-86
2023/06/06 13:41:56;;;;;;;;;3.67;3.00;;;;;;;;5074738;27;45344;-85
2023/06/06 13:44:21;;;;;;;;;2.50;2.50;;;;;;;;5069252;27;45380;-85
2023/06/06 13:46:47;;;;;;;;;8.00;3.50;;;;;;;;5074508;27;46122;-85
2023/06/06 13:49:13;;;;;;;;;3.25;2.50;;;;;;;;5073739;27;45458;-85
2023/06/06 13:51:39;;;;;;;;;3.75;3.00;;;;;;;;5074323;27;45580;-84
2023/06/06 13:54:04;;;;;;;;;5.00;2.25;;;;;;;;5073082;27;45512;-83
2023/06/06 13:56:30;;;;;;;;;4.33;4.00;;;;;;;;5074521;27;45503;-84
2023/06/06 13:58:55;;;;;;;;;4.00;3.00;;;;;;;;5073523;27;45365;-84
2023/06/06 14:01:21;;;;;;;;;3.00;3.00;;;;;;;;5074625;27;45549;-84
2023/06/06 14:03:46;;;;;;;;;5.00;3.00;;;;;;;;5074353;27;45392;-85
2023/06/06 14:06:12;;;;;;;;;3.00;2.00;;;;;;;;5074577;27;46088;-84
2023/06/06 14:08:38;;;;;;;;;7.00;2.75;;;;;;;;5074060;27;45265;-84
2023/06/06 14:11:05;;;;;;;;;4.25;2.75;;;;;;;;5073436;27;45465;-84
2023/06/06 14:13:30;;;;;;;;;3.25;3.25;;;;;;;;5071963;27;45556;-85
2023/06/06 14:15:55;;;;;;;;;5.33;3.67;;;;;;;;5068364;27;45509;-85
2023/06/06 14:18:21;;;;;;;;;1.67;1.67;;;;;;;;5070423;28;45504;-85
2023/06/06 14:20:59;;;;;;;;;2.67;2.00;;;;;;;;5074306;27;45381;-85
2023/06/06 14:23:24;;;;;;;;;2.75;1.75;;;;;;;;5062328;27;45708;-84
2023/06/06 14:25:50;;;;;;;;;4.50;3.25;;;;;;;;5074272;27;45453;-85
2023/06/06 14:28:15;;;;;;;;;3.67;1.67;;;;;;;;5073594;27;45649;-87
2023/06/06 14:30:40;;;;;;;;;2.75;2.00;;;;;;;;5071319;27;45388;-87